Time;durP1;ratioP1;P1;durP2;ratioP2;P2;SDS_P1;SDS_P2;PMS_P1;PMS_P2;Temp;Humidity;BMP_temperature;BMP_pressure;BME280_temperature;BME280_humidity;BME280_pressure;Samples;Min_cycle;Max_cycle;Signal;HPM_P1;HPM_P2
2021/04/22 00:02:15;;;;;;;14.30;3.28;;;8.20;99.90;;;;;;5068453;28;20081;-71
2021/04/22 00:04:41;;;;;;;14.88;2.72;;;8.20;99.90;;;;;;5067155;28;20029;-71
2021/04/22 00:07:06;;;;;;;21.05;2.95;;;8.20;99.90;;;;;;5068288;28;20111;-71
2021/04/22 00:09:32;;;;;;;16.90;3.85;;;8.10;99.90;;;;;;5078168;28;20120;-70
2021/04/22 00:11:58;;;;;;;20.63;3.88;;;8.00;99.90;;;;;;5074942;28;20036;-71
2021/04/22 00:14:23;;;;;;;12.57;2.83;;;8.00;99.90;;;;;;5069176;28;20036;-71
2021/04/22 00:16:49;;;;;;;15.50;3.17;;;8.00;99.90;;;;;;5070632;28;20127;-70
2021/04/22 00:19:15;;;;;;;14.63;2.60;;;7.90;99.90;;;;;;5069775;28;20028;-71
2021/04/22 00:21:40;;;;;;;14.27;2.85;;;7.90;99.90;;;;;;5072666;28;20036;-71
2021/04/22 00:24:07;;;;;;;15.73;3.17;;;7.80;99.90;;;;;;5072035;28;20029;-71
2021/04/22 00:26:32;;;;;;;14.48;3.60;;;7.80;99.90;;;;;;5074783;28;20027;-70
2021/04/22 00:28:58;;;;;;;12.98;2.65;;;7.70;99.90;;;;;;5073079;28;20020;-71
2021/04/22 00:31:25;;;;;;;19.50;3.13;;;7.70;99.90;;;;;;5074688;28;20031;-71
2021/04/22 00:33:50;;;;;;;16.50;3.83;;;7.70;99.90;;;;;;5076461;28;20106;-71
2021/04/22 00:36:16;;;;;;;17.65;3.05;;;7.60;99.90;;;;;;5071859;28;20516;-70
2021/04/22 00:38:42;;;;;;;14.45;2.70;;;7.60;99.90;;;;;;5073127;28;20021;-70
2021/04/22 00:41:09;;;;;;;19.95;3.38;;;7.60;99.90;;;;;;5073321;28;20029;-70
2021/04/22 00:43:35;;;;;;;15.73;3.38;;;7.60;99.90;;;;;;5073806;28;20063;-71
2021/04/22 00:46:01;;;;;;;14.70;2.80;;;7.60;99.90;;;;;;5070320;28;20445;-70
2021/04/22 00:48:27;;;;;;;23.92;3.30;;;7.60;99.90;;;;;;5072644;28;20032;-70
2021/04/22 00:50:53;;;;;;;14.07;3.63;;;7.50;99.90;;;;;;5073593;28;20023;-71
2021/04/22 00:53:20;;;;;;;21.27;3.00;;;7.50;99.90;;;;;;5071944;28;20029;-71
2021/04/22 00:55:47;;;;;;;14.15;3.22;;;7.50;99.90;;;;;;5069949;28;20040;-70
2021/04/22 00:58:14;;;;;;;18.92;3.30;;;7.40;99.90;;;;;;5068829;28;20051;-71
2021/04/22 01:00:52;;;;;;;14.85;3.25;;;7.40;99.90;;;;;;5072384;28;20025;-70
2021/04/22 01:03:18;;;;;;;18.77;3.63;;;7.40;99.90;;;;;;5072721;28;20123;-71
2021/04/22 01:05:59;;;;;;;22.75;3.35;;;7.40;99.90;;;;;;5074786;28;20107;-71
2021/04/22 01:08:26;;;;;;;16.45;2.97;;;7.40;99.90;;;;;;5074052;28;20023;-70
2021/04/22 01:10:52;;;;;;;17.27;3.78;;;7.40;99.90;;;;;;5070683;28;20107;-70
2021/04/22 01:13:18;;;;;;;18.95;3.65;;;7.40;99.90;;;;;;5073794;28;20033;-71
2021/04/22 01:15:44;;;;;;;12.48;3.17;;;7.30;99.90;;;;;;5073818;28;20028;-70
2021/04/22 01:18:10;;;;;;;15.32;2.67;;;7.40;99.90;;;;;;5064335;28;20669;-71
2021/04/22 01:20:40;;;;;;;18.17;3.17;;;7.30;99.90;;;;;;5070503;28;20512;-71
2021/04/22 01:23:07;;;;;;;20.20;3.55;;;7.30;99.90;;;;;;5070933;28;20116;-71
2021/04/22 01:25:38;;;;;;;30.40;4.28;;;7.30;99.90;;;;;;5071873;28;20028;-71
2021/04/22 01:28:08;;;;;;;20.70;3.03;;;7.20;99.90;;;;;;5065997;28;20024;-70
2021/04/22 01:30:39;;;;;;;21.15;4.13;;;7.20;99.90;;;;;;5066993;28;20301;-71
2021/04/22 01:33:06;;;;;;;18.70;3.42;;;7.20;99.90;;;;;;5069478;28;20024;-70
2021/04/22 01:35:36;;;;;;;14.60;3.03;;;7.10;99.90;;;;;;5076958;28;20112;-71
2021/04/22 01:38:04;;;;;;;25.17;3.40;;;7.00;99.90;;;;;;5064804;28;20551;-70
2021/04/22 01:40:30;;;;;;;14.48;3.15;;;6.90;99.90;;;;;;5073293;28;20370;-71
2021/04/22 01:42:57;;;;;;;19.17;3.42;;;6.90;99.90;;;;;;5068579;28;20021;-70
2021/04/22 01:45:23;;;;;;;25.05;3.63;;;6.90;99.90;;;;;;5073012;28;20024;-70
2021/04/22 01:47:49;;;;;;;15.05;3.55;;;6.90;99.90;;;;;;5072477;28;20385;-70
2021/04/22 01:50:19;;;;;;;22.83;3.72;;;6.80;99.90;;;;;;5069012;28;20021;-71
2021/04/22 01:52:45;;;;;;;16.58;2.95;;;6.80;99.90;;;;;;5071878;28;20031;-70
2021/04/22 01:55:13;;;;;;;24.90;3.63;;;6.80;99.90;;;;;;5068197;28;20381;-70
2021/04/22 01:57:40;;;;;;;30.77;3.85;;;6.80;99.90;;;;;;5070356;28;20520;-70
2021/04/22 02:00:15;;;;;;;18.08;3.28;;;6.70;99.90;;;;;;5068959;28;20031;-71
2021/04/22 02:02:42;;;;;;;20.55;3.42;;;6.60;99.90;;;;;;5065690;28;20025;-70
2021/04/22 02:05:10;;;;;;;23.58;3.72;;;6.70;99.90;;;;;;5064156;28;20377;-70
2021/04/22 02:07:36;;;;;;;22.70;4.70;;;6.70;99.90;;;;;;5072052;28;20028;-70
2021/04/22 02:10:08;;;;;;;23.95;4.15;;;6.70;99.90;;;;;;5073895;28;20074;-71
2021/04/22 02:12:33;;;;;;;23.42;4.70;;;6.60;99.90;;;;;;5060791;28;20493;-71
2021/04/22 02:14:59;;;;;;;26.25;4.35;;;6.50;99.90;;;;;;5068873;28;20023;-70
2021/04/22 02:17:25;;;;;;;18.10;3.75;;;6.50;99.90;;;;;;5076010;28;20108;-71
2021/04/22 02:19:51;;;;;;;22.85;3.55;;;6.50;99.90;;;;;;5069854;28;20021;-70
2021/04/22 02:22:16;;;;;;;20.48;4.85;;;6.50;99.90;;;;;;5068868;28;20076;-70
2021/04/22 02:24:42;;;;;;;36.80;4.20;;;6.50;99.90;;;;;;5074195;28;20533;-70
2021/04/22 02:27:09;;;;;;;18.25;3.70;;;6.40;99.90;;;;;;5071747;28;20035;-70
2021/04/22 02:29:34;;;;;;;24.77;4.97;;;6.40;99.90;;;;;;5073681;28;20108;-70
2021/04/22 02:32:00;;;;;;;20.63;4.65;;;6.40;99.90;;;;;;5067962;28;20162;-71
2021/04/22 02:34:26;;;;;;;23.42;3.92;;;6.40;99.90;;;;;;5070700;28;20025;-70
2021/04/22 02:36:52;;;;;;;17.85;3.53;;;6.30;99.90;;;;;;5072214;28;20033;-70
2021/04/22 02:39:17;;;;;;;16.65;3.80;;;6.30;99.90;;;;;;5065561;28;20028;-71
2021/04/22 02:41:43;;;;;;;16.48;3.70;;;6.30;99.90;;;;;;5065861;28;20488;-70
2021/04/22 02:44:08;;;;;;;20.30;4.20;;;6.30;99.90;;;;;;5076042;28;20036;-70
2021/04/22 02:46:34;;;;;;;17.52;3.65;;;6.30;99.90;;;;;;5067481;28;20067;-71
2021/04/22 02:49:00;;;;;;;16.85;4.75;;;6.30;99.90;;;;;;5063296;28;20032;-70
2021/04/22 02:51:26;;;;;;;16.92;4.05;;;6.20;99.90;;;;;;5071464;28;20016;-70
2021/04/22 02:53:51;;;;;;;17.15;3.40;;;6.20;99.90;;;;;;5065384;28;20037;-71
2021/04/22 02:56:17;;;;;;;17.02;3.67;;;6.30;99.90;;;;;;5067291;28;20043;-70
2021/04/22 02:58:42;;;;;;;24.95;4.53;;;6.30;99.90;;;;;;5070383;28;20110;-70
2021/04/22 03:01:09;;;;;;;18.20;3.70;;;6.20;99.90;;;;;;5073312;28;20072;-70
2021/04/22 03:03:34;;;;;;;23.27;4.45;;;6.30;99.90;;;;;;5071032;28;20440;-70
2021/04/22 03:06:00;;;;;;;20.35;4.03;;;6.20;99.90;;;;;;5070575;28;20028;-70
2021/04/22 03:08:25;;;;;;;16.73;4.35;;;6.20;99.90;;;;;;5068426;28;20021;-70
2021/04/22 03:10:52;;;;;;;22.70;4.47;;;6.20;99.90;;;;;;5063537;28;20033;-71
2021/04/22 03:13:18;;;;;;;18.80;4.00;;;6.10;99.90;;;;;;5067661;28;21471;-71
2021/04/22 03:15:44;;;;;;;28.00;4.28;;;6.10;99.90;;;;;;5068666;28;20028;-70
2021/04/22 03:18:10;;;;;;;23.65;3.70;;;6.10;99.90;;;;;;5068778;28;20028;-70
2021/04/22 03:20:37;;;;;;;18.77;4.22;;;6.10;99.90;;;;;;5069481;28;20862;-70
2021/04/22 03:23:03;;;;;;;24.45;5.18;;;5.90;99.90;;;;;;5074065;28;20055;-70
2021/04/22 03:25:29;;;;;;;26.42;4.00;;;5.90;99.90;;;;;;5076451;28;20021;-70
2021/04/22 03:27:55;;;;;;;23.10;5.53;;;6.00;99.90;;;;;;5073695;28;20492;-70
2021/04/22 03:30:27;;;;;;;17.67;4.15;;;5.90;99.90;;;;;;5075006;28;20111;-70
2021/04/22 03:32:53;;;;;;;29.40;4.85;;;5.90;99.90;;;;;;5068098;28;20111;-70
2021/04/22 03:35:19;;;;;;;23.00;4.90;;;5.90;99.90;;;;;;5073224;28;20099;-70
2021/04/22 03:37:45;;;;;;;26.25;4.28;;;5.90;99.90;;;;;;5075441;28;20656;-71
2021/04/22 03:40:13;;;;;;;23.38;5.18;;;5.90;99.90;;;;;;5069744;28;20047;-70
2021/04/22 03:42:39;;;;;;;30.08;4.40;;;5.80;99.90;;;;;;5070857;28;20349;-70
2021/04/22 03:45:09;;;;;;;23.98;4.25;;;5.90;99.90;;;;;;5074790;28;20032;-70
2021/04/22 03:47:34;;;;;;;16.55;4.03;;;5.70;99.90;;;;;;5073550;28;20028;-70
2021/04/22 03:50:01;;;;;;;19.02;3.80;;;5.70;99.90;;;;;;5073842;28;20373;-71
2021/04/22 03:52:26;;;;;;;26.80;4.65;;;5.70;99.90;;;;;;5066144;28;20016;-71
2021/04/22 03:54:53;;;;;;;18.40;3.70;;;5.70;99.90;;;;;;5075470;28;20096;-70
2021/04/22 03:57:18;;;;;;;22.08;4.38;;;5.70;99.90;;;;;;5078999;28;20039;-70
2021/04/22 03:59:44;;;;;;;19.90;4.60;;;5.70;99.90;;;;;;5077929;28;20021;-70
2021/04/22 04:02:09;;;;;;;20.95;4.85;;;5.70;99.90;;;;;;5074631;28;20038;-70
2021/04/22 04:04:35;;;;;;;23.60;4.80;;;5.70;99.90;;;;;;5074084;28;20048;-70
2021/04/22 04:07:01;;;;;;;24.92;4.35;;;5.80;99.90;;;;;;5074584;28;20021;-70
2021/04/22 04:09:26;;;;;;;17.73;4.45;;;5.70;99.90;;;;;;5074021;28;20028;-70
2021/04/22 04:11:52;;;;;;;30.92;4.82;;;5.70;99.90;;;;;;5065493;28;20040;-70
2021/04/22 04:14:17;;;;;;;23.45;4.50;;;5.70;99.90;;;;;;5069735;28;20040;-70
2021/04/22 04:16:43;;;;;;;17.23;4.20;;;5.80;99.90;;;;;;5075191;28;20035;-70
2021/04/22 04:19:08;;;;;;;24.25;4.63;;;5.60;99.90;;;;;;5070792;28;20416;-70
2021/04/22 04:21:34;;;;;;;29.23;4.95;;;5.50;99.90;;;;;;5076942;28;20020;-71
2021/04/22 04:24:00;;;;;;;17.70;3.85;;;5.50;99.90;;;;;;5072064;28;20116;-70
2021/04/22 04:26:26;;;;;;;18.23;4.13;;;5.50;99.90;;;;;;5073450;28;20032;-70
2021/04/22 04:28:51;;;;;;;21.10;4.55;;;5.40;99.90;;;;;;5068360;28;20030;-70
2021/04/22 04:31:17;;;;;;;23.60;5.40;;;5.40;99.90;;;;;;5068097;28;20894;-70
2021/04/22 04:33:44;;;;;;;22.58;4.63;;;5.30;99.90;;;;;;5071393;28;20140;-70
2021/04/22 04:36:09;;;;;;;36.00;5.22;;;5.30;99.90;;;;;;5072578;28;20025;-70
2021/04/22 04:38:35;;;;;;;30.02;4.90;;;5.30;99.90;;;;;;5070073;28;20032;-70
2021/04/22 04:41:01;;;;;;;22.27;5.07;;;5.30;99.90;;;;;;5071334;28;20377;-70
2021/04/22 04:43:26;;;;;;;24.20;4.78;;;5.30;99.90;;;;;;5077102;28;20024;-70
2021/04/22 04:45:52;;;;;;;26.05;5.28;;;5.30;99.90;;;;;;5071967;28;20036;-70
2021/04/22 04:48:17;;;;;;;24.98;5.07;;;5.30;99.90;;;;;;5067195;28;20043;-70
2021/04/22 04:50:43;;;;;;;24.13;4.45;;;5.30;99.90;;;;;;5073856;28;20472;-70
2021/04/22 04:53:09;;;;;;;18.85;4.63;;;5.20;99.90;;;;;;5072891;28;20044;-71
2021/04/22 04:55:35;;;;;;;17.95;4.68;;;5.30;99.90;;;;;;5073043;28;20028;-70
2021/04/22 04:58:00;;;;;;;20.63;3.97;;;5.30;99.90;;;;;;5064195;28;20533;-70
2021/04/22 05:00:26;;;;;;;26.60;4.72;;;5.20;99.90;;;;;;5071236;28;20024;-71
2021/04/22 05:02:52;;;;;;;20.33;4.43;;;5.30;99.90;;;;;;5067753;28;20385;-70
2021/04/22 05:05:18;;;;;;;25.83;5.05;;;5.40;99.90;;;;;;5069229;28;20580;-71
2021/04/22 05:07:44;;;;;;;21.40;4.75;;;5.40;99.90;;;;;;5064609;28;20028;-71
2021/04/22 05:10:10;;;;;;;19.48;4.30;;;5.50;99.90;;;;;;5069533;28;20032;-70
2021/04/22 05:12:36;;;;;;;21.02;4.63;;;5.50;99.90;;;;;;5073611;28;20025;-70
2021/04/22 05:15:03;;;;;;;17.17;5.30;;;5.50;99.90;;;;;;5070413;28;20384;-70
2021/04/22 05:17:29;;;;;;;21.23;4.55;;;5.50;99.90;;;;;;5067948;28;20037;-71
2021/04/22 05:19:54;;;;;;;24.75;5.95;;;5.60;99.90;;;;;;5069981;28;20017;-71
2021/04/22 05:22:20;;;;;;;34.00;4.97;;;5.60;99.90;;;;;;5065052;28;20037;-70
2021/04/22 05:24:46;;;;;;;19.65;4.85;;;5.60;99.90;;;;;;5072376;28;20473;-70
2021/04/22 05:27:11;;;;;;;20.65;4.72;;;5.60;99.90;;;;;;5074689;28;20040;-70
2021/04/22 05:29:37;;;;;;;23.83;4.47;;;5.50;99.90;;;;;;5070294;28;20017;-70
2021/04/22 05:32:03;;;;;;;21.45;5.47;;;5.50;99.90;;;;;;5066012;28;21159;-70
2021/04/22 05:34:29;;;;;;;29.08;5.78;;;5.50;99.90;;;;;;5067797;28;20024;-70
2021/04/22 05:36:55;;;;;;;22.65;5.68;;;5.60;99.90;;;;;;5069761;28;20477;-70
2021/04/22 05:39:22;;;;;;;23.35;5.00;;;5.60;99.90;;;;;;5065142;28;20044;-70
2021/04/22 05:41:51;;;;;;;24.20;5.32;;;5.70;99.90;;;;;;5070983;28;20032;-70
2021/04/22 05:44:17;;;;;;;19.85;6.00;;;5.70;99.90;;;;;;5069623;28;20033;-70
2021/04/22 05:46:44;;;;;;;20.90;6.15;;;5.80;99.90;;;;;;5062161;28;20078;-71
2021/04/22 05:49:10;;;;;;;21.25;6.15;;;5.90;99.90;;;;;;5070585;28;20021;-71
2021/04/22 05:51:37;;;;;;;19.88;5.07;;;6.00;99.90;;;;;;5066346;28;20078;-70
2021/04/22 05:54:04;;;;;;;30.65;6.50;;;6.10;99.90;;;;;;5071961;28;20036;-70
2021/04/22 05:56:30;;;;;;;22.48;5.15;;;6.10;99.90;;;;;;5071159;28;20033;-70
2021/04/22 05:58:55;;;;;;;19.70;5.82;;;6.10;99.90;;;;;;5063416;28;20094;-70
2021/04/22 06:01:21;;;;;;;22.48;5.25;;;6.00;99.90;;;;;;5070034;28;20020;-70
2021/04/22 06:03:47;;;;;;;27.15;5.93;;;6.10;99.90;;;;;;5069164;28;20472;-70
2021/04/22 06:06:12;;;;;;;21.08;5.82;;;6.10;99.90;;;;;;5070703;28;20033;-70
2021/04/22 06:08:38;;;;;;;25.08;5.78;;;6.20;99.90;;;;;;5070749;28;20059;-71
2021/04/22 06:11:04;;;;;;;22.40;6.18;;;6.30;99.90;;;;;;5068787;28;20041;-70
2021/04/22 06:13:30;;;;;;;22.08;7.22;;;6.30;99.90;;;;;;5068994;28;20021;-70
2021/04/22 06:15:55;;;;;;;24.02;7.18;;;6.30;99.90;;;;;;5070292;28;20162;-71
2021/04/22 06:18:21;;;;;;;26.25;6.88;;;6.40;99.90;;;;;;5063148;28;20032;-70
2021/04/22 06:20:47;;;;;;;32.17;7.75;;;6.40;99.90;;;;;;5069275;28;20091;-70
2021/04/22 06:23:12;;;;;;;33.10;6.85;;;6.50;99.90;;;;;;5067963;28;20170;-71
2021/04/22 06:25:38;;;;;;;29.23;6.97;;;6.60;99.90;;;;;;5072612;28;20389;-71
2021/04/22 06:28:04;;;;;;;26.10;6.78;;;6.60;99.90;;;;;;5072468;28;20036;-70
2021/04/22 06:30:30;;;;;;;27.92;7.40;;;6.70;99.90;;;;;;5067215;28;20058;-70
2021/04/22 06:32:56;;;;;;;28.05;6.93;;;6.80;99.90;;;;;;5069109;28;20401;-71
2021/04/22 06:35:22;;;;;;;22.75;6.38;;;6.90;99.90;;;;;;5073960;28;20024;-70
2021/04/22 06:37:48;;;;;;;20.33;6.30;;;6.90;99.90;;;;;;5071217;28;20040;-71
2021/04/22 06:40:18;;;;;;;25.13;6.32;;;7.00;99.90;;;;;;5067982;28;20039;-71
2021/04/22 06:42:44;;;;;;;28.52;7.22;;;7.20;99.90;;;;;;5073102;28;20459;-71
2021/04/22 06:45:12;;;;;;;27.70;7.07;;;7.20;99.90;;;;;;5070371;28;20021;-71
2021/04/22 06:47:38;;;;;;;29.30;6.65;;;7.30;99.90;;;;;;5068928;28;20059;-71
2021/04/22 06:50:05;;;;;;;25.80;6.65;;;7.30;99.90;;;;;;5073769;28;20100;-71
2021/04/22 06:52:31;;;;;;;25.35;5.75;;;7.40;99.90;;;;;;5069757;28;20031;-72
2021/04/22 06:54:57;;;;;;;17.63;5.22;;;7.50;99.90;;;;;;5070335;28;20935;-70
2021/04/22 06:57:22;;;;;;;29.90;6.00;;;7.40;99.90;;;;;;5067729;28;20040;-71
2021/04/22 06:59:48;;;;;;;20.65;5.68;;;7.30;99.90;;;;;;5065232;28;20104;-72
2021/04/22 07:02:13;;;;;;;24.13;6.75;;;7.50;99.90;;;;;;5063571;28;20115;-70
2021/04/22 07:04:39;;;;;;;21.77;6.10;;;7.60;99.90;;;;;;5066739;28;20028;-70
2021/04/22 07:07:07;;;;;;;19.27;5.50;;;7.70;99.90;;;;;;5065887;28;20024;-70
2021/04/22 07:09:34;;;;;;;21.08;6.00;;;7.90;99.90;;;;;;5067626;28;20016;-70
2021/04/22 07:12:00;;;;;;;22.02;5.55;;;8.10;99.90;;;;;;5065424;28;20021;-69
2021/04/22 07:14:26;;;;;;;21.98;5.00;;;8.10;99.90;;;;;;5065819;28;20028;-70
2021/04/22 07:16:51;;;;;;;20.00;5.43;;;8.10;99.90;;;;;;5067317;28;20090;-70
2021/04/22 07:19:17;;;;;;;20.73;4.00;;;8.30;99.90;;;;;;5071126;28;20040;-69
2021/04/22 07:21:42;;;;;;;25.83;5.65;;;8.40;99.90;;;;;;5063373;28;20021;-70
2021/04/22 07:24:09;;;;;;;22.65;5.60;;;8.50;99.90;;;;;;5061826;28;20036;-70
2021/04/22 07:26:35;;;;;;;18.42;4.97;;;8.60;99.90;;;;;;5072646;28;20025;-70
2021/04/22 07:29:01;;;;;;;18.85;5.43;;;8.70;99.90;;;;;;5067142;28;20033;-69
2021/04/22 07:31:27;;;;;;;19.95;4.85;;;8.80;99.90;;;;;;5063705;28;20021;-69
2021/04/22 07:33:53;;;;;;;15.30;3.85;;;8.80;99.90;;;;;;5073867;28;20031;-69
2021/04/22 07:36:18;;;;;;;19.65;5.13;;;8.80;99.90;;;;;;5049091;28;20550;-69
2021/04/22 07:38:44;;;;;;;16.95;4.35;;;8.90;99.90;;;;;;5068180;28;20139;-69
2021/04/22 07:41:10;;;;;;;13.63;3.47;;;9.00;99.90;;;;;;5067032;28;20358;-69
2021/04/22 07:43:36;;;;;;;14.88;4.43;;;9.20;99.90;;;;;;5067494;28;20033;-69
2021/04/22 07:46:02;;;;;;;25.60;4.38;;;9.30;99.90;;;;;;5066650;28;20107;-69
2021/04/22 07:48:28;;;;;;;14.88;3.97;;;9.30;99.90;;;;;;5069520;28;20359;-70
2021/04/22 07:50:53;;;;;;;17.23;4.38;;;9.30;99.90;;;;;;5063579;28;20107;-69
2021/04/22 07:53:19;;;;;;;15.18;3.70;;;9.20;99.90;;;;;;5065425;28;20464;-70
2021/04/22 07:55:45;;;;;;;16.33;3.22;;;9.30;99.90;;;;;;5073279;28;20039;-69
2021/04/22 07:58:14;;;;;;;20.10;3.95;;;9.50;99.90;;;;;;5071098;28;20040;-70
2021/04/22 08:00:41;;;;;;;13.93;4.40;;;9.40;99.90;;;;;;5069656;28;20020;-68
2021/04/22 08:03:08;;;;;;;17.92;4.53;;;9.60;99.90;;;;;;5066127;28;20036;-70
2021/04/22 08:05:36;;;;;;;20.50;3.53;;;9.60;99.90;;;;;;5073887;28;20025;-69
2021/04/22 08:08:07;;;;;;;18.25;3.38;;;9.80;99.90;;;;;;5083954;28;20437;-68
2021/04/22 08:10:34;;;;;;;18.92;2.88;;;9.80;99.90;;;;;;5076287;28;20430;-69
2021/04/22 08:13:02;;;;;;;13.90;3.35;;;9.60;99.90;;;;;;5064460;28;20040;-67
2021/04/22 08:15:30;;;;;;;14.27;2.78;;;9.50;99.90;;;;;;5071736;28;20101;-68
2021/04/22 08:17:55;;;;;;;18.42;3.40;;;9.50;99.90;;;;;;5074434;28;20046;-68
2021/04/22 08:20:26;;;;;;;14.00;2.90;;;9.80;99.90;;;;;;5073017;28;20021;-68
2021/04/22 08:22:55;;;;;;;14.13;3.08;;;9.80;99.90;;;;;;5064609;28;20060;-68
2021/04/22 08:25:45;;;;;;;15.52;3.53;;;9.80;99.90;;;;;;5069841;28;20485;-69
2021/04/22 08:28:14;;;;;;;19.63;3.88;;;9.90;99.70;;;;;;5074052;28;20496;-69
2021/04/22 08:30:50;;;;;;;17.48;3.47;;;10.10;99.90;;;;;;5075870;28;20055;-69
2021/04/22 08:33:16;;;;;;;12.43;3.35;;;10.10;99.90;;;;;;5069966;28;20040;-69
2021/04/22 08:35:43;;;;;;;12.23;2.80;;;10.20;98.90;;;;;;5063531;28;20437;-68
2021/04/22 08:38:09;;;;;;;11.05;3.60;;;10.20;99.30;;;;;;5070492;28;20041;-68
2021/04/22 08:40:35;;;;;;;17.83;4.07;;;10.50;99.20;;;;;;5070873;28;20107;-68
2021/04/22 08:43:01;;;;;;;18.08;3.25;;;10.70;99.80;;;;;;5069494;28;20032;-69
2021/04/22 08:45:26;;;;;;;8.95;3.03;;;11.00;97.90;;;;;;5065477;28;20095;-68
2021/04/22 08:47:52;;;;;;;19.05;3.85;;;11.30;98.20;;;;;;5071018;28;20508;-68
2021/04/22 08:50:27;;;;;;;11.50;2.80;;;11.30;98.00;;;;;;5072674;28;20052;-69
2021/04/22 08:52:55;;;;;;;15.13;3.33;;;11.50;98.50;;;;;;5072169;28;20029;-67
2021/04/22 08:55:25;;;;;;;20.70;3.85;;;11.60;97.40;;;;;;5071992;28;20119;-68
2021/04/22 08:57:51;;;;;;;17.80;4.00;;;11.80;99.00;;;;;;5065260;28;20555;-68
2021/04/22 09:00:23;;;;;;;15.02;3.72;;;12.00;98.40;;;;;;5074722;28;20081;-68
2021/04/22 09:02:48;;;;;;;12.88;4.07;;;12.20;97.70;;;;;;5072250;28;20044;-68
2021/04/22 09:05:16;;;;;;;15.40;4.45;;;12.40;96.50;;;;;;5070803;28;20376;-68
2021/04/22 09:07:43;;;;;;;17.60;3.50;;;12.30;96.80;;;;;;5072356;28;20028;-68
2021/04/22 09:10:11;;;;;;;22.17;4.22;;;12.40;96.90;;;;;;5068282;28;20030;-69
2021/04/22 09:12:37;;;;;;;15.75;4.38;;;12.00;96.60;;;;;;5068416;28;20032;-68
2021/04/22 09:15:13;;;;;;;18.45;4.22;;;12.00;96.90;;;;;;5064434;28;20028;-69
2021/04/22 09:17:40;;;;;;;17.95;3.97;;;12.40;96.80;;;;;;5066645;28;20477;-69
2021/04/22 09:20:09;;;;;;;21.77;4.00;;;12.80;96.10;;;;;;5067354;28;20028;-70
2021/04/22 09:22:41;;;;;;;12.02;3.47;;;13.00;96.70;;;;;;5072138;28;20032;-69
2021/04/22 09:25:24;;;;;;;15.18;3.85;;;13.10;95.60;;;;;;5074994;28;20107;-69
2021/04/22 09:27:50;;;;;;;;;;;13.40;95.70;;;;;;5072691;28;20432;-70
2021/04/22 09:30:17;;;;;;;17.58;4.70;;;13.40;94.90;;;;;;5071189;28;19999;-69
2021/04/22 09:32:43;;;;;;;12.88;3.55;;;13.10;94.20;;;;;;5064765;28;20024;-68
2021/04/22 09:35:14;;;;;;;14.70;3.90;;;13.20;93.50;;;;;;5046257;28;20017;-69
2021/04/22 09:37:43;;;;;;;12.80;3.40;;;13.40;94.20;;;;;;5068947;28;20029;-70
2021/04/22 09:40:18;;;;;;;18.42;4.60;;;13.50;96.10;;;;;;5065857;28;20569;-68
2021/04/22 09:42:44;;;;;;;12.90;3.63;;;12.60;93.20;;;;;;5064025;28;20031;-68
2021/04/22 09:45:13;;;;;;;12.00;4.70;;;12.90;94.40;;;;;;5069643;28;20067;-68
2021/04/22 09:47:39;;;;;;;18.13;3.67;;;12.80;94.30;;;;;;5072264;28;20473;-69
2021/04/22 09:50:11;;;;;;;16.13;3.83;;;13.00;95.20;;;;;;5052465;28;20036;-69
2021/04/22 09:52:41;;;;;;;14.15;3.78;;;13.10;94.90;;;;;;5070699;28;20028;-70
2021/04/22 09:55:11;;;;;;;13.48;4.35;;;13.20;94.60;;;;;;5062778;28;20116;-70
2021/04/22 09:57:37;;;;;;;14.38;3.50;;;13.00;94.40;;;;;;5068474;28;20036;-70
2021/04/22 10:00:25;;;;;;;9.27;3.78;;;12.70;94.80;;;;;;5071951;28;20358;-70
2021/04/22 10:02:54;;;;;;;15.27;3.90;;;12.40;95.60;;;;;;5066317;28;20040;-69
2021/04/22 10:05:35;;;;;;;14.82;4.55;;;12.40;94.50;;;;;;5068041;28;20258;-70
2021/04/22 10:08:07;;;;;;;14.32;3.83;;;12.90;95.80;;;;;;5060799;28;20032;-70
2021/04/22 10:10:34;;;;;;;;;;;13.40;95.30;;;;;;5066477;28;20031;-70
2021/04/22 10:13:06;;;;;;;11.60;3.30;;;13.60;94.10;;;;;;5069276;28;19931;-70
2021/04/22 10:15:32;;;;;;;12.15;3.85;;;13.60;93.70;;;;;;5069865;28;20028;-70
2021/04/22 10:17:59;;;;;;;14.55;4.20;;;13.10;93.20;;;;;;5069311;28;20087;-70
2021/04/22 10:20:27;;;;;;;15.93;4.28;;;12.90;93.30;;;;;;5075079;28;20024;-69
2021/04/22 10:22:54;;;;;;;11.98;3.90;;;13.10;94.80;;;;;;5071597;28;20178;-70
2021/04/22 10:25:26;;;;;;;16.73;4.85;;;13.20;93.70;;;;;;5051855;28;20036;-69
2021/04/22 10:27:52;;;;;;;11.77;3.90;;;13.50;93.50;;;;;;5071639;28;20024;-69
2021/04/22 10:30:22;;;;;;;17.30;4.57;;;13.60;91.80;;;;;;5064501;28;20036;-69
2021/04/22 10:32:49;;;;;;;14.48;4.45;;;13.40;92.50;;;;;;5061036;28;20025;-69
2021/04/22 10:35:20;;;;;;;11.50;4.50;;;13.50;92.40;;;;;;5065985;28;20385;-69
2021/04/22 10:37:50;;;;;;;11.75;3.70;;;13.70;93.80;;;;;;5067765;28;20481;-67
2021/04/22 10:40:18;;;;;;;22.70;5.40;;;13.80;93.30;;;;;;5066748;28;20021;-69
2021/04/22 10:42:44;;;;;;;13.02;4.53;;;13.70;93.20;;;;;;5071559;28;20031;-68
2021/04/22 10:45:13;;;;;;;14.80;4.82;;;13.50;93.40;;;;;;5065667;28;20195;-70
2021/04/22 10:47:40;;;;;;;12.13;4.53;;;13.40;93.80;;;;;;5067268;28;20096;-70
2021/04/22 10:50:19;;;;;;;19.00;4.40;;;13.40;94.40;;;;;;5066116;28;20547;-71
2021/04/22 10:52:48;;;;;;;20.92;5.38;;;13.70;94.10;;;;;;5063708;28;20073;-71
2021/04/22 10:55:23;;;;;;;13.30;4.25;;;14.10;93.40;;;;;;5069385;28;20036;-70
2021/04/22 10:57:51;;;;;;;14.57;4.35;;;14.30;93.60;;;;;;5064281;28;20033;-71
2021/04/22 11:00:20;;;;;;;17.27;4.45;;;14.50;92.90;;;;;;5068298;28;20048;-71
2021/04/22 11:02:48;;;;;;;19.15;4.43;;;14.60;92.70;;;;;;5057745;28;20021;-70
2021/04/22 11:05:35;;;;;;;15.98;4.53;;;14.80;91.90;;;;;;5064449;28;20020;-70
2021/04/22 11:08:08;;;;;;;17.15;5.05;;;15.00;92.00;;;;;;5062413;28;20564;-70
2021/04/22 11:10:47;;;;;;;15.35;4.75;;;14.60;90.10;;;;;;5075516;28;20042;-71
2021/04/22 11:13:25;;;;;;;13.10;4.90;;;14.60;91.20;;;;;;5072939;28;20132;-71
2021/04/22 11:15:56;;;;;;;17.00;5.43;;;14.40;90.70;;;;;;5070789;28;20060;-70
2021/04/22 11:18:46;;;;;;;16.80;5.35;;;14.50;91.10;;;;;;5071488;28;20056;-70
2021/04/22 11:22:00;;;;;;;12.85;4.40;;;14.70;91.70;;;;;;5059271;28;20368;-71
2021/04/22 11:24:34;;;;;;;13.85;4.50;;;14.70;91.00;;;;;;5062673;28;20032;-70
2021/04/22 11:27:03;;;;;;;13.07;4.65;;;14.70;90.70;;;;;;5063896;28;20020;-71
2021/04/22 11:29:42;;;;;;;15.75;4.97;;;15.00;92.10;;;;;;5065848;28;20028;-70
2021/04/22 11:32:23;;;;;;;12.65;4.63;;;15.10;92.50;;;;;;5065424;28;20033;-70
2021/04/22 11:34:50;;;;;;;10.75;5.10;;;15.30;90.10;;;;;;5066426;28;20024;-71
2021/04/22 11:37:19;;;;;;;13.18;4.43;;;15.20;90.30;;;;;;5060956;28;20123;-71
2021/04/22 11:39:45;;;;;;;14.00;4.45;;;15.30;91.60;;;;;;5067101;28;20118;-70
2021/04/22 11:42:11;;;;;;;11.38;4.15;;;15.40;91.00;;;;;;5074769;28;20032;-70
2021/04/22 11:44:51;;;;;;;19.13;4.88;;;15.40;88.60;;;;;;5075217;28;20147;-71
2021/04/22 11:47:21;;;;;;;11.27;4.20;;;15.50;90.20;;;;;;5071048;28;20080;-70
2021/04/22 11:49:49;;;;;;;10.73;4.55;;;15.40;88.80;;;;;;5078537;28;20151;-71
2021/04/22 11:52:22;;;;;;;13.48;4.93;;;15.50;89.10;;;;;;5071658;28;20545;-70
2021/04/22 11:54:49;;;;;;;11.32;4.30;;;15.40;89.70;;;;;;5075482;28;20036;-70
2021/04/22 11:57:16;;;;;;;13.60;4.40;;;15.40;89.60;;;;;;5070838;28;20590;-70
2021/04/22 11:59:42;;;;;;;15.50;4.28;;;15.50;89.60;;;;;;5067716;28;20028;-70
2021/04/22 12:02:12;;;;;;;9.60;4.20;;;15.60;90.40;;;;;;5073474;28;20077;-71
2021/04/22 12:04:47;;;;;;;27.80;5.95;;;15.60;90.50;;;;;;5076148;28;20030;-70
2021/04/22 12:07:19;;;;;;;11.32;4.20;;;15.50;90.90;;;;;;5069655;28;20054;-70
2021/04/22 12:09:53;;;;;;;11.57;3.60;;;15.50;89.80;;;;;;5062061;28;20053;-68
2021/04/22 12:12:29;;;;;;;17.95;5.22;;;15.70;88.50;;;;;;5072283;28;20029;-68
2021/04/22 12:14:57;;;;;;;9.82;3.90;;;15.70;89.70;;;;;;5075211;28;20039;-70
2021/04/22 12:17:31;;;;;;;11.20;3.80;;;16.00;88.90;;;;;;5070720;28;20512;-68
2021/04/22 12:19:59;;;;;;;12.48;5.22;;;15.90;87.00;;;;;;5068363;28;20017;-68
2021/04/22 12:22:46;;;;;;;14.50;4.97;;;16.00;90.30;;;;;;5075842;28;20033;-69
2021/04/22 12:25:21;;;;;;;13.55;4.55;;;16.00;89.00;;;;;;5071591;28;20178;-69
2021/04/22 12:27:49;;;;;;;14.40;4.43;;;15.80;90.50;;;;;;5070741;28;20182;-70
2021/04/22 12:30:15;;;;;;;10.60;4.50;;;15.50;87.10;;;;;;5071253;28;20032;-68
2021/04/22 12:33:06;;;;;;;15.98;4.63;;;15.70;90.40;;;;;;5071775;28;20081;-70
2021/04/22 12:35:32;;;;;;;12.27;4.45;;;15.70;89.90;;;;;;5066077;28;20481;-69
2021/04/22 12:38:22;;;;;;;20.25;4.97;;;15.80;89.00;;;;;;5058789;28;20028;-70
2021/04/22 12:40:56;;;;;;;14.95;5.10;;;16.00;87.50;;;;;;5069758;28;20377;-70
2021/04/22 12:43:22;;;;;;;8.50;4.88;;;16.10;86.70;;;;;;5068530;28;20388;-71
2021/04/22 12:45:48;;;;;;;12.98;5.35;;;16.10;87.90;;;;;;5073276;28;20116;-71
2021/04/22 12:48:14;;;;;;;16.23;4.88;;;16.20;86.00;;;;;;5068287;28;20604;-71